Bazetta, Ohio
Current Conditions -  °F | °C
As of 5:28 AM on Saturday 01 Nov 2014 (Local Time) from KYNG Reporting Station
Haze Haze  
Wind Chill: 36°   Ceiling: 2400
Heat Index: 41°   Visibility: 5mi
Dew Point: 39°   Wind: 7mph
Humidity: 93%   Direction: 350°N
Pressure: 29.95"   Gusts: NA
Location:  41.3436°N, 80.7192°W
Report Text: KYNG 010928Z 35006KT 5SM BR FEW006 SCT011 OVC024 05/04 A2995 RMK AO2 T00500039 $
Loading
Personal Weather Stations






























Interactive Weather Map
Tropical Storm Tracking
New forecast layout! Learn more

10-Day Weather Forecast

Advertisements
Track Severe Weather on mobile